Terminal Aerodrome Forecast
Issued by NWS

Home | Current Version | Previous Version | Graphics & Text | Print | Product List | Glossary On
Versions: 1 2 3 4 5 6 7 8 9 10 11 12 13 14
000
FTUS43 KICT 181722
TAFHUT
TAF
KHUT 181722Z 1818/1918 20012KT P6SM FEW040 SCT100
     FM182300 18007KT P6SM SCT150
     FM190800 17009KT P6SM BKN100
     FM191500 18016G23KT P6SM SKC=

USA.gov is the U.S. government's official web portal to all federal, state and local government web resources and services.